sensor_id;sensor_type;location;lat;lon;timestamp;pressure;altitude;pressure_sealevel;temperature;humidity
11648;BME280;5880;52.342;9.662;2023-09-19T00:00:46;99992.06;;;22.51;51.06
11648;BME280;5880;52.342;9.662;2023-09-19T00:03:15;100002.06;;;22.52;50.93
11648;BME280;5880;52.342;9.662;2023-09-19T00:05:41;100005.69;;;22.52;50.80
11648;BME280;5880;52.342;9.662;2023-09-19T00:08:10;100015.34;;;22.55;50.82
11648;BME280;5880;52.342;9.662;2023-09-19T00:10:35;100024.50;;;22.55;50.77
11648;BME280;5880;52.342;9.662;2023-09-19T00:13:03;100026.13;;;22.57;50.83
11648;BME280;5880;52.342;9.662;2023-09-19T00:15:39;100034.97;;;22.59;50.64
11648;BME280;5880;52.342;9.662;2023-09-19T00:18:07;100015.97;;;22.52;50.77
11648;BME280;5880;52.342;9.662;2023-09-19T00:20:36;100022.22;;;22.58;50.88
11648;BME280;5880;52.342;9.662;2023-09-19T00:23:02;100012.06;;;22.53;50.79
11648;BME280;5880;52.342;9.662;2023-09-19T00:25:31;100016.47;;;22.54;50.92
11648;BME280;5880;52.342;9.662;2023-09-19T00:27:57;100015.97;;;22.52;50.79
11648;BME280;5880;52.342;9.662;2023-09-19T00:30:23;100010.75;;;22.50;50.90
11648;BME280;5880;52.342;9.662;2023-09-19T00:32:51;100010.25;;;22.48;50.81
11648;BME280;5880;52.342;9.662;2023-09-19T00:35:23;100000.59;;;22.46;51.13
11648;BME280;5880;52.342;9.662;2023-09-19T00:37:50;100012.72;;;22.41;51.02
11648;BME280;5880;52.342;9.662;2023-09-19T00:40:16;100003.88;;;22.39;50.95
11648;BME280;5880;52.342;9.662;2023-09-19T00:42:46;100003.06;;;22.39;51.16
11648;BME280;5880;52.342;9.662;2023-09-19T00:45:16;99998.13;;;22.36;51.21
11648;BME280;5880;52.342;9.662;2023-09-19T00:47:48;100013.84;;;22.40;51.11
11648;BME280;5880;52.342;9.662;2023-09-19T00:50:17;100005.97;;;22.33;50.94
11648;BME280;5880;52.342;9.662;2023-09-19T00:52:46;100016.28;;;22.33;50.90
11648;BME280;5880;52.342;9.662;2023-09-19T00:55:14;100034.31;;;22.36;51.00
11648;BME280;5880;52.342;9.662;2023-09-19T00:57:41;100027.78;;;22.31;51.06
11648;BME280;5880;52.342;9.662;2023-09-19T01:00:09;100031.22;;;22.37;51.04
11648;BME280;5880;52.342;9.662;2023-09-19T01:02:42;100033.34;;;22.31;50.83
11648;BME280;5880;52.342;9.662;2023-09-19T01:05:09;100040.22;;;22.34;50.85
11648;BME280;5880;52.342;9.662;2023-09-19T01:07:36;100036.94;;;22.32;50.91
11648;BME280;5880;52.342;9.662;2023-09-19T01:10:08;100043.47;;;22.27;50.82
11648;BME280;5880;52.342;9.662;2023-09-19T01:13:16;100054.28;;;22.29;50.83
11648;BME280;5880;52.342;9.662;2023-09-19T01:16:07;100046.06;;;22.24;50.88
11648;BME280;5880;52.342;9.662;2023-09-19T01:18:55;100049.34;;;22.26;50.96
11648;BME280;5880;52.342;9.662;2023-09-19T01:21:47;100039.19;;;22.21;50.85
11648;BME280;5880;52.342;9.662;2023-09-19T01:30:43;100059.81;;;22.20;51.14
11648;BME280;5880;52.342;9.662;2023-09-19T01:33:10;100053.44;;;22.20;51.17
11648;BME280;5880;52.342;9.662;2023-09-19T01:35:38;100050.66;;;22.20;51.30
11648;BME280;5880;52.342;9.662;2023-09-19T01:38:06;100054.94;;;22.26;51.29
11648;BME280;5880;52.342;9.662;2023-09-19T01:40:51;100060.19;;;22.27;51.22
11648;BME280;5880;52.342;9.662;2023-09-19T01:43:38;100062.16;;;22.27;51.29
11648;BME280;5880;52.342;9.662;2023-09-19T01:46:12;100067.53;;;22.23;51.41
11648;BME280;5880;52.342;9.662;2023-09-19T01:51:56;100066.88;;;22.26;51.38
11648;BME280;5880;52.342;9.662;2023-09-19T01:54:37;100062.16;;;22.27;51.32
11648;BME280;5880;52.342;9.662;2023-09-19T01:57:16;100068.69;;;22.31;51.37
11648;BME280;5880;52.342;9.662;2023-09-19T01:59:52;100065.59;;;22.32;51.08
11648;BME280;5880;52.342;9.662;2023-09-19T02:02:21;100058.41;;;22.31;51.16
11648;BME280;5880;52.342;9.662;2023-09-19T02:04:49;100057.56;;;22.31;51.18
11648;BME280;5880;52.342;9.662;2023-09-19T02:07:16;100053.94;;;22.30;51.16
11648;BME280;5880;52.342;9.662;2023-09-19T02:09:42;100056.91;;;22.25;51.21
11648;BME280;5880;52.342;9.662;2023-09-19T02:12:09;100056.09;;;22.25;51.15
11648;BME280;5880;52.342;9.662;2023-09-19T02:14:35;100055.59;;;22.23;51.27
11648;BME280;5880;52.342;9.662;2023-09-19T02:17:02;100051.16;;;22.22;51.25
11648;BME280;5880;52.342;9.662;2023-09-19T02:19:33;100053.31;;;22.25;51.28
11648;BME280;5880;52.342;9.662;2023-09-19T02:22:00;100062.97;;;22.27;51.14
11648;BME280;5880;52.342;9.662;2023-09-19T02:24:28;100058.22;;;22.28;50.92
11648;BME280;5880;52.342;9.662;2023-09-19T02:26:54;100072.31;;;22.31;50.95
11648;BME280;5880;52.342;9.662;2023-09-19T02:29:21;100079.00;;;22.30;50.79
11648;BME280;5880;52.342;9.662;2023-09-19T02:31:47;100083.44;;;22.31;50.94
11648;BME280;5880;52.342;9.662;2023-09-19T02:34:13;100085.72;;;22.29;50.99
11648;BME280;5880;52.342;9.662;2023-09-19T02:36:42;100086.53;;;22.30;50.68
11648;BME280;5880;52.342;9.662;2023-09-19T02:39:09;100089.63;;;22.28;50.87
11648;BME280;5880;52.342;9.662;2023-09-19T02:41:36;100091.91;;;22.26;50.88
11648;BME280;5880;52.342;9.662;2023-09-19T02:44:02;100088.66;;;22.24;50.84
11648;BME280;5880;52.342;9.662;2023-09-19T02:46:28;100089.47;;;22.25;50.80
11648;BME280;5880;52.342;9.662;2023-09-19T02:48:53;100090.94;;;22.22;50.72
11648;BME280;5880;52.342;9.662;2023-09-19T02:51:20;100086.81;;;22.20;50.49
11648;BME280;5880;52.342;9.662;2023-09-19T02:53:46;100090.72;;;22.19;50.43
11648;BME280;5880;52.342;9.662;2023-09-19T02:56:13;100088.09;;;22.13;50.58
11648;BME280;5880;52.342;9.662;2023-09-19T02:58:39;100099.72;;;22.16;50.54
11648;BME280;5880;52.342;9.662;2023-09-19T03:01:11;100106.44;;;22.14;50.32
11648;BME280;5880;52.342;9.662;2023-09-19T03:03:40;100104.59;;;22.10;50.47
11648;BME280;5880;52.342;9.662;2023-09-19T03:06:06;100107.09;;;22.11;50.67
11648;BME280;5880;52.342;9.662;2023-09-19T03:08:35;100102.97;;;22.09;50.53
11648;BME280;5880;52.342;9.662;2023-09-19T03:11:05;100108.53;;;22.09;50.59
11648;BME280;5880;52.342;9.662;2023-09-19T03:13:32;100102.94;;;22.00;50.51
11648;BME280;5880;52.342;9.662;2023-09-19T03:15:58;100103.75;;;22.01;50.41
11648;BME280;5880;52.342;9.662;2023-09-19T03:18:24;100109.31;;;22.01;50.59
11648;BME280;5880;52.342;9.662;2023-09-19T03:20:55;100112.59;;;22.03;50.41
11648;BME280;5880;52.342;9.662;2023-09-19T03:23:22;100114.06;;;22.00;50.30
11648;BME280;5880;52.342;9.662;2023-09-19T03:25:48;100113.09;;;21.96;50.41
11648;BME280;5880;52.342;9.662;2023-09-19T03:28:14;100117.00;;;21.95;50.46
11648;BME280;5880;52.342;9.662;2023-09-19T03:30:41;100116.19;;;21.95;50.52
11648;BME280;5880;52.342;9.662;2023-09-19T03:33:07;100116.50;;;21.93;50.34
11648;BME280;5880;52.342;9.662;2023-09-19T03:35:33;100127.47;;;21.89;50.27
11648;BME280;5880;52.342;9.662;2023-09-19T03:38:00;100127.78;;;21.88;50.34
11648;BME280;5880;52.342;9.662;2023-09-19T03:40:25;100121.72;;;21.86;50.25
11648;BME280;5880;52.342;9.662;2023-09-19T03:42:51;100121.34;;;21.79;50.49
11648;BME280;5880;52.342;9.662;2023-09-19T03:45:17;100124.13;;;21.79;50.47
11648;BME280;5880;52.342;9.662;2023-09-19T03:47:43;100128.56;;;21.80;50.51
11648;BME280;5880;52.342;9.662;2023-09-19T03:50:09;100111.50;;;21.73;50.42
11648;BME280;5880;52.342;9.662;2023-09-19T03:52:40;100113.28;;;21.68;50.51
11648;BME280;5880;52.342;9.662;2023-09-19T03:55:07;100124.59;;;21.72;50.52
11648;BME280;5880;52.342;9.662;2023-09-19T03:57:33;100131.91;;;21.68;50.38
11648;BME280;5880;52.342;9.662;2023-09-19T04:00:00;100129.63;;;21.70;50.53
11648;BME280;5880;52.342;9.662;2023-09-19T04:02:25;100127.38;;;21.72;50.65
11648;BME280;5880;52.342;9.662;2023-09-19T04:04:51;100130.28;;;21.67;50.54
11648;BME280;5880;52.342;9.662;2023-09-19T04:07:18;100133.88;;;21.67;50.64
11648;BME280;5880;52.342;9.662;2023-09-19T04:09:48;100119.81;;;21.64;50.79
11648;BME280;5880;52.342;9.662;2023-09-19T04:12:14;100131.75;;;21.64;50.80
11648;BME280;5880;52.342;9.662;2023-09-19T04:14:42;100139.44;;;21.67;50.40
11648;BME280;5880;52.342;9.662;2023-09-19T04:17:08;100133.19;;;21.62;50.52
11648;BME280;5880;52.342;9.662;2023-09-19T04:19:36;100140.72;;;21.61;50.52
11648;BME280;5880;52.342;9.662;2023-09-19T04:22:01;100142.66;;;21.61;50.51
11648;BME280;5880;52.342;9.662;2023-09-19T04:24:27;100143.81;;;21.60;50.55
11648;BME280;5880;52.342;9.662;2023-09-19T04:26:53;100135.94;;;21.53;50.84
11648;BME280;5880;52.342;9.662;2023-09-19T04:29:18;100132.63;;;21.51;50.47
11648;BME280;5880;52.342;9.662;2023-09-19T04:31:44;100133.78;;;21.50;50.58
11648;BME280;5880;52.342;9.662;2023-09-19T04:34:12;100140.16;;;21.50;50.62
11648;BME280;5880;52.342;9.662;2023-09-19T04:36:41;100134.91;;;21.49;50.63
11648;BME280;5880;52.342;9.662;2023-09-19T04:39:07;100141.41;;;21.44;50.64
11648;BME280;5880;52.342;9.662;2023-09-19T04:41:33;100151.41;;;21.45;50.60
11648;BME280;5880;52.342;9.662;2023-09-19T04:44:00;100147.63;;;21.41;50.36
11648;BME280;5880;52.342;9.662;2023-09-19T04:46:25;100163.66;;;21.44;50.52
11648;BME280;5880;52.342;9.662;2023-09-19T04:48:51;100168.22;;;21.40;50.61
11648;BME280;5880;52.342;9.662;2023-09-19T04:51:17;100173.78;;;21.40;50.73
11648;BME280;5880;52.342;9.662;2023-09-19T04:53:44;100174.69;;;21.36;50.48
11648;BME280;5880;52.342;9.662;2023-09-19T04:56:09;100167.19;;;21.36;50.77
11648;BME280;5880;52.342;9.662;2023-09-19T04:58:35;100172.53;;;21.33;50.82
11648;BME280;5880;52.342;9.662;2023-09-19T05:01:01;100174.69;;;21.36;50.61
11648;BME280;5880;52.342;9.662;2023-09-19T05:03:27;100193.31;;;21.35;50.73
11648;BME280;5880;52.342;9.662;2023-09-19T05:05:53;100194.16;;;21.36;51.07
11648;BME280;5880;52.342;9.662;2023-09-19T05:08:18;100187.28;;;21.33;50.89
11648;BME280;5880;52.342;9.662;2023-09-19T05:10:44;100180.25;;;21.36;50.60
11648;BME280;5880;52.342;9.662;2023-09-19T05:13:10;100179.41;;;21.35;50.62
11648;BME280;5880;52.342;9.662;2023-09-19T05:15:37;100175.81;;;21.35;50.78
11648;BME280;5880;52.342;9.662;2023-09-19T05:18:03;100177.78;;;21.34;50.62
11648;BME280;5880;52.342;9.662;2023-09-19T05:20:29;100193.13;;;21.32;50.62
11648;BME280;5880;52.342;9.662;2023-09-19T05:23:06;100197.53;;;21.33;50.88
11648;BME280;5880;52.342;9.662;2023-09-19T05:25:39;100214.56;;;21.31;50.84
11648;BME280;5880;52.342;9.662;2023-09-19T05:28:10;100209.94;;;21.26;50.76
11648;BME280;5880;52.342;9.662;2023-09-19T05:30:37;100204.69;;;21.25;50.48
11648;BME280;5880;52.342;9.662;2023-09-19T05:33:04;100211.00;;;21.17;50.78
11648;BME280;5880;52.342;9.662;2023-09-19T05:35:31;100214.91;;;21.16;50.81
11648;BME280;5880;52.342;9.662;2023-09-19T05:37:57;100218.00;;;21.14;50.64
11648;BME280;5880;52.342;9.662;2023-09-19T05:40:25;100224.38;;;21.15;50.53
11648;BME280;5880;52.342;9.662;2023-09-19T05:42:51;100218.63;;;21.11;50.56
11648;BME280;5880;52.342;9.662;2023-09-19T05:45:17;100225.50;;;21.14;50.60
11648;BME280;5880;52.342;9.662;2023-09-19T05:47:52;100230.25;;;21.13;50.33
11648;BME280;5880;52.342;9.662;2023-09-19T05:50:22;100244.25;;;21.08;50.49
11648;BME280;5880;52.342;9.662;2023-09-19T05:52:54;100263.41;;;21.10;50.82
11648;BME280;5880;52.342;9.662;2023-09-19T05:55:21;100269.78;;;21.10;50.64
11648;BME280;5880;52.342;9.662;2023-09-19T05:57:51;100268.97;;;21.10;50.70
11648;BME280;5880;52.342;9.662;2023-09-19T06:00:23;100279.44;;;21.13;50.41
11648;BME280;5880;52.342;9.662;2023-09-19T06:02:55;100276.66;;;21.13;50.64
11648;BME280;5880;52.342;9.662;2023-09-19T06:05:27;100279.97;;;21.15;50.71
11648;BME280;5880;52.342;9.662;2023-09-19T06:07:53;100277.34;;;21.18;50.67
11648;BME280;5880;52.342;9.662;2023-09-19T06:10:19;100282.81;;;21.23;50.77
11648;BME280;5880;52.342;9.662;2023-09-19T06:12:49;100287.41;;;21.28;50.77
11648;BME280;5880;52.342;9.662;2023-09-19T06:15:15;100277.34;;;21.32;51.01
11648;BME280;5880;52.342;9.662;2023-09-19T06:20:14;100279.41;;;21.40;51.08
11648;BME280;5880;52.342;9.662;2023-09-19T06:22:42;100283.91;;;21.50;50.81
11648;BME280;5880;52.342;9.662;2023-09-19T06:25:10;100280.50;;;21.53;51.09
11648;BME280;5880;52.342;9.662;2023-09-19T06:27:41;100283.66;;;21.60;50.80
11648;BME280;5880;52.342;9.662;2023-09-19T06:30:09;100277.50;;;21.63;50.85
11648;BME280;5880;52.342;9.662;2023-09-19T06:32:37;100277.78;;;21.62;50.96
11648;BME280;5880;52.342;9.662;2023-09-19T06:35:03;100275.09;;;21.70;50.89
11648;BME280;5880;52.342;9.662;2023-09-19T06:37:29;100279.56;;;21.80;50.75
11648;BME280;5880;52.342;9.662;2023-09-19T06:39:55;100266.66;;;21.84;50.74
11648;BME280;5880;52.342;9.662;2023-09-19T06:42:22;100264.31;;;22.00;51.00
11648;BME280;5880;52.342;9.662;2023-09-19T06:44:49;100266.50;;;22.12;51.09
11648;BME280;5880;52.342;9.662;2023-09-19T06:47:15;100266.16;;;22.27;51.04
11648;BME280;5880;52.342;9.662;2023-09-19T06:49:42;100259.19;;;22.47;51.13
11648;BME280;5880;52.342;9.662;2023-09-19T06:52:10;100269.94;;;22.80;51.74
11648;BME280;5880;52.342;9.662;2023-09-19T06:54:35;100264.66;;;23.10;51.88
11648;BME280;5880;52.342;9.662;2023-09-19T06:57:01;100285.19;;;23.57;51.92
11648;BME280;5880;52.342;9.662;2023-09-19T06:59:27;100284.22;;;24.06;51.90
11648;BME280;5880;52.342;9.662;2023-09-19T07:01:53;100298.41;;;24.56;51.51
11648;BME280;5880;52.342;9.662;2023-09-19T07:04:18;100303.84;;;25.12;50.70
11648;BME280;5880;52.342;9.662;2023-09-19T07:06:50;100314.78;;;25.56;49.96
11648;BME280;5880;52.342;9.662;2023-09-19T07:09:16;100299.34;;;25.92;49.22
11648;BME280;5880;52.342;9.662;2023-09-19T07:11:43;100291.63;;;26.22;48.22
11648;BME280;5880;52.342;9.662;2023-09-19T07:14:09;100291.94;;;26.41;47.78
11648;BME280;5880;52.342;9.662;2023-09-19T07:16:38;100292.06;;;26.57;47.49
11648;BME280;5880;52.342;9.662;2023-09-19T07:19:05;100289.88;;;26.75;47.27
11648;BME280;5880;52.342;9.662;2023-09-19T07:21:31;100288.72;;;26.88;46.96
11648;BME280;5880;52.342;9.662;2023-09-19T07:24:02;100300.75;;;27.01;46.67
11648;BME280;5880;52.342;9.662;2023-09-19T07:26:29;100302.63;;;27.09;46.27
11648;BME280;5880;52.342;9.662;2023-09-19T07:28:55;100315.03;;;27.21;46.17
11648;BME280;5880;52.342;9.662;2023-09-19T07:31:22;100313.13;;;27.37;45.78
11648;BME280;5880;52.342;9.662;2023-09-19T07:33:49;100315.19;;;27.52;45.98
11648;BME280;5880;52.342;9.662;2023-09-19T07:36:14;100321.50;;;27.62;45.78
11648;BME280;5880;52.342;9.662;2023-09-19T07:38:42;100315.88;;;27.62;45.46
11648;BME280;5880;52.342;9.662;2023-09-19T07:41:08;100328.28;;;27.61;44.84
11648;BME280;5880;52.342;9.662;2023-09-19T07:43:35;100332.50;;;27.54;44.38
11648;BME280;5880;52.342;9.662;2023-09-19T07:46:07;100334.50;;;27.42;43.94
11648;BME280;5880;52.342;9.662;2023-09-19T07:48:34;100331.50;;;27.22;43.22
11648;BME280;5880;52.342;9.662;2023-09-19T07:51:05;100341.66;;;27.02;42.91
11648;BME280;5880;52.342;9.662;2023-09-19T07:53:33;100348.75;;;26.75;42.84
11648;BME280;5880;52.342;9.662;2023-09-19T07:56:09;100345.28;;;26.45;42.89
11648;BME280;5880;52.342;9.662;2023-09-19T07:58:35;100348.59;;;26.26;42.65
11648;BME280;5880;52.342;9.662;2023-09-19T08:01:07;100340.78;;;25.98;42.72
11648;BME280;5880;52.342;9.662;2023-09-19T08:03:34;100355.47;;;25.74;42.76
11648;BME280;5880;52.342;9.662;2023-09-19T08:06:01;100354.63;;;25.53;43.20
11648;BME280;5880;52.342;9.662;2023-09-19T08:08:27;100348.66;;;25.33;42.98
11648;BME280;5880;52.342;9.662;2023-09-19T08:10:56;100345.78;;;25.12;43.23
11648;BME280;5880;52.342;9.662;2023-09-19T08:13:26;100336.97;;;25.01;43.33
11648;BME280;5880;52.342;9.662;2023-09-19T08:15:52;100335.41;;;24.83;43.21
11648;BME280;5880;52.342;9.662;2023-09-19T08:18:20;100342.53;;;24.72;43.71
11648;BME280;5880;52.342;9.662;2023-09-19T08:20:51;100347.31;;;24.62;43.35
11648;BME280;5880;52.342;9.662;2023-09-19T08:23:18;100352.47;;;24.52;43.90
11648;BME280;5880;52.342;9.662;2023-09-19T08:25:46;100346.38;;;24.41;43.86
11648;BME280;5880;52.342;9.662;2023-09-19T08:28:12;100356.06;;;24.43;44.02
11648;BME280;5880;52.342;9.662;2023-09-19T08:30:40;100343.56;;;24.41;43.68
11648;BME280;5880;52.342;9.662;2023-09-19T08:33:06;100355.41;;;24.38;43.89
11648;BME280;5880;52.342;9.662;2023-09-19T08:35:33;100351.97;;;24.32;43.97
11648;BME280;5880;52.342;9.662;2023-09-19T08:37:59;100350.47;;;24.35;44.15
11648;BME280;5880;52.342;9.662;2023-09-19T08:40:30;100344.44;;;24.24;43.96
11648;BME280;5880;52.342;9.662;2023-09-19T08:42:59;100355.28;;;24.26;43.94
11648;BME280;5880;52.342;9.662;2023-09-19T08:45:26;100345.25;;;24.25;44.43
11648;BME280;5880;52.342;9.662;2023-09-19T08:48:23;100364.97;;;24.28;44.82
11648;BME280;5880;52.342;9.662;2023-09-19T08:51:13;100358.91;;;24.26;44.51
11648;BME280;5880;52.342;9.662;2023-09-19T08:54:19;100357.72;;;24.27;45.01
11648;BME280;5880;52.342;9.662;2023-09-19T08:56:48;100343.78;;;24.27;45.09
11648;BME280;5880;52.342;9.662;2023-09-19T08:59:16;100362.47;;;24.44;44.51
11648;BME280;5880;52.342;9.662;2023-09-19T09:01:44;100356.41;;;24.51;44.85
11648;BME280;5880;52.342;9.662;2023-09-19T09:04:11;100346.69;;;24.66;44.42
11648;BME280;5880;52.342;9.662;2023-09-19T09:06:39;100361.25;;;24.80;44.27
11648;BME280;5880;52.342;9.662;2023-09-19T09:09:06;100366.25;;;24.95;44.05
11648;BME280;5880;52.342;9.662;2023-09-19T09:11:33;100366.41;;;25.08;44.01
11648;BME280;5880;52.342;9.662;2023-09-19T09:13:59;100363.03;;;25.14;43.59
11648;BME280;5880;52.342;9.662;2023-09-19T09:16:25;100368.63;;;25.23;43.65
11648;BME280;5880;52.342;9.662;2023-09-19T09:18:51;100372.16;;;25.41;43.67
11648;BME280;5880;52.342;9.662;2023-09-19T09:21:22;100373.88;;;25.54;43.68
11648;BME280;5880;52.342;9.662;2023-09-19T09:23:50;100377.25;;;25.68;43.59
11648;BME280;5880;52.342;9.662;2023-09-19T09:26:17;100373.50;;;25.85;43.46
11648;BME280;5880;52.342;9.662;2023-09-19T09:28:46;100372.34;;;26.07;43.93
11648;BME280;5880;52.342;9.662;2023-09-19T09:31:24;100373.84;;;26.38;43.81
11648;BME280;5880;52.342;9.662;2023-09-19T09:33:56;100375.00;;;26.58;43.64
11648;BME280;5880;52.342;9.662;2023-09-19T09:36:35;100366.84;;;26.78;43.04
11648;BME280;5880;52.342;9.662;2023-09-19T09:39:02;100378.31;;;26.85;42.80
11648;BME280;5880;52.342;9.662;2023-09-19T09:41:42;100371.78;;;26.93;42.66
11648;BME280;5880;52.342;9.662;2023-09-19T09:44:17;100381.97;;;26.98;42.61
11648;BME280;5880;52.342;9.662;2023-09-19T09:46:47;100373.41;;;26.94;42.53
11648;BME280;5880;52.342;9.662;2023-09-19T09:49:27;100382.63;;;26.82;41.90
11648;BME280;5880;52.342;9.662;2023-09-19T09:52:07;100385.28;;;26.66;42.42
11648;BME280;5880;52.342;9.662;2023-09-19T09:55:02;100400.06;;;26.55;42.30
11648;BME280;5880;52.342;9.662;2023-09-19T09:57:33;100395.00;;;26.48;42.42
11648;BME280;5880;52.342;9.662;2023-09-19T10:00:01;100386.47;;;26.44;42.39
11648;BME280;5880;52.342;9.662;2023-09-19T10:02:39;100390.56;;;26.47;41.94
11648;BME280;5880;52.342;9.662;2023-09-19T10:05:19;100389.41;;;26.48;41.92
11648;BME280;5880;52.342;9.662;2023-09-19T10:07:47;100388.72;;;26.51;42.02
11648;BME280;5880;52.342;9.662;2023-09-19T10:10:31;100396.38;;;26.63;42.74
11648;BME280;5880;52.342;9.662;2023-09-19T10:13:09;100389.03;;;26.70;42.60
11648;BME280;5880;52.342;9.662;2023-09-19T10:15:43;100394.06;;;26.77;41.98
11648;BME280;5880;52.342;9.662;2023-09-19T10:18:19;100381.81;;;26.69;41.61
11648;BME280;5880;52.342;9.662;2023-09-19T10:20:47;100390.47;;;26.77;41.37
11648;BME280;5880;52.342;9.662;2023-09-19T10:23:17;100391.50;;;26.72;41.55
11648;BME280;5880;52.342;9.662;2023-09-19T10:25:49;100387.59;;;26.64;41.09
11648;BME280;5880;52.342;9.662;2023-09-19T10:28:17;100391.16;;;26.52;41.37
11648;BME280;5880;52.342;9.662;2023-09-19T10:30:48;100373.03;;;26.38;40.96
11648;BME280;5880;52.342;9.662;2023-09-19T10:33:21;100383.47;;;26.16;40.37
11648;BME280;5880;52.342;9.662;2023-09-19T10:35:49;100378.22;;;25.94;40.48
11648;BME280;5880;52.342;9.662;2023-09-19T10:38:23;100379.47;;;25.75;40.59
11648;BME280;5880;52.342;9.662;2023-09-19T10:40:52;100373.41;;;25.52;40.96
11648;BME280;5880;52.342;9.662;2023-09-19T10:43:20;100366.34;;;25.46;41.38
11648;BME280;5880;52.342;9.662;2023-09-19T10:45:49;100377.09;;;25.35;41.51
11648;BME280;5880;52.342;9.662;2023-09-19T10:48:16;100386.34;;;25.36;42.06
11648;BME280;5880;52.342;9.662;2023-09-19T10:51:09;100385.50;;;25.35;41.98
11648;BME280;5880;52.342;9.662;2023-09-19T10:53:55;100394.75;;;25.36;41.73
11648;BME280;5880;52.342;9.662;2023-09-19T10:56:36;100382.22;;;25.33;41.68
11648;BME280;5880;52.342;9.662;2023-09-19T10:59:20;100396.56;;;25.32;41.82
11648;BME280;5880;52.342;9.662;2023-09-19T11:01:53;100391.28;;;25.30;41.60
11648;BME280;5880;52.342;9.662;2023-09-19T11:04:33;100389.50;;;25.25;41.27
11648;BME280;5880;52.342;9.662;2023-09-19T11:07:11;100385.09;;;25.16;41.50
11648;BME280;5880;52.342;9.662;2023-09-19T11:15:03;100379.59;;;24.98;41.67
11648;BME280;5880;52.342;9.662;2023-09-19T11:17:42;100380.53;;;25.02;41.59
11648;BME280;5880;52.342;9.662;2023-09-19T11:30:39;100370.19;;;25.03;41.44
11648;BME280;5880;52.342;9.662;2023-09-19T11:33:30;100377.09;;;25.05;41.55
11648;BME280;5880;52.342;9.662;2023-09-19T11:36:09;100382.19;;;25.03;41.28
11648;BME280;5880;52.342;9.662;2023-09-19T11:46:27;100374.88;;;24.81;41.40
11648;BME280;5880;52.342;9.662;2023-09-19T11:48:54;100375.34;;;24.83;41.77
11648;BME280;5880;52.342;9.662;2023-09-19T11:51:24;100376.50;;;24.91;41.42
11648;BME280;5880;52.342;9.662;2023-09-19T11:53:55;100378.44;;;24.91;41.51
11648;BME280;5880;52.342;9.662;2023-09-19T11:56:24;100378.13;;;24.92;41.47
11648;BME280;5880;52.342;9.662;2023-09-19T11:58:54;100368.94;;;24.92;41.34
11648;BME280;5880;52.342;9.662;2023-09-19T12:01:31;100369.88;;;24.96;41.31
11648;BME280;5880;52.342;9.662;2023-09-19T12:03:59;100381.06;;;24.96;41.52
11648;BME280;5880;52.342;9.662;2023-09-19T12:06:27;100377.44;;;24.95;41.43
11648;BME280;5880;52.342;9.662;2023-09-19T12:08:55;100387.63;;;25.00;41.54
11648;BME280;5880;52.342;9.662;2023-09-19T12:11:27;100367.75;;;24.93;41.28
11648;BME280;5880;52.342;9.662;2023-09-19T12:13:52;100358.56;;;24.92;40.78
11648;BME280;5880;52.342;9.662;2023-09-19T12:16:22;100370.41;;;24.89;40.63
11648;BME280;5880;52.342;9.662;2023-09-19T12:18:49;100378.16;;;24.83;41.03
11648;BME280;5880;52.342;9.662;2023-09-19T12:21:42;100387.34;;;24.84;41.65
11648;BME280;5880;52.342;9.662;2023-09-19T12:24:12;100377.50;;;24.87;41.52
11648;BME280;5880;52.342;9.662;2023-09-19T12:26:46;100372.72;;;24.87;41.79
11648;BME280;5880;52.342;9.662;2023-09-19T12:29:21;100387.97;;;24.98;42.33
11648;BME280;5880;52.342;9.662;2023-09-19T12:31:51;100367.84;;;25.05;41.85
11648;BME280;5880;52.342;9.662;2023-09-19T12:34:21;100377.09;;;25.05;41.92
11648;BME280;5880;52.342;9.662;2023-09-19T12:36:48;100379.53;;;25.07;41.63
11648;BME280;5880;52.342;9.662;2023-09-19T12:39:26;100375.91;;;25.06;41.06
11648;BME280;5880;52.342;9.662;2023-09-19T12:41:55;100382.03;;;25.00;41.41
11648;BME280;5880;52.342;9.662;2023-09-19T12:44:21;100378.75;;;24.98;41.39
11648;BME280;5880;52.342;9.662;2023-09-19T12:46:46;100372.34;;;24.97;41.34
11648;BME280;5880;52.342;9.662;2023-09-19T12:49:17;100371.66;;;25.00;41.17
11648;BME280;5880;52.342;9.662;2023-09-19T12:51:45;100358.16;;;25.02;41.21
11648;BME280;5880;52.342;9.662;2023-09-19T12:54:12;100360.47;;;25.00;40.94
11648;BME280;5880;52.342;9.662;2023-09-19T12:56:42;100361.66;;;24.99;41.15
11648;BME280;5880;52.342;9.662;2023-09-19T12:59:14;100360.03;;;24.98;41.01
11648;BME280;5880;52.342;9.662;2023-09-19T13:01:41;100343.91;;;24.95;40.85
11648;BME280;5880;52.342;9.662;2023-09-19T13:04:21;100340.63;;;24.93;40.80
11648;BME280;5880;52.342;9.662;2023-09-19T13:07:00;100342.47;;;24.89;40.81
11648;BME280;5880;52.342;9.662;2023-09-19T13:09:27;100351.47;;;24.95;41.05
11648;BME280;5880;52.342;9.662;2023-09-19T13:12:05;100348.69;;;24.95;41.04
11648;BME280;5880;52.342;9.662;2023-09-19T13:15:08;100347.66;;;24.99;41.19
11648;BME280;5880;52.342;9.662;2023-09-19T13:17:47;100337.47;;;25.03;40.80
11648;BME280;5880;52.342;9.662;2023-09-19T13:20:26;100348.97;;;25.02;40.85
11648;BME280;5880;52.342;9.662;2023-09-19T13:22:58;100354.56;;;25.02;40.93
11648;BME280;5880;52.342;9.662;2023-09-19T13:25:26;100335.00;;;25.02;41.20
11648;BME280;5880;52.342;9.662;2023-09-19T13:27:57;100336.75;;;25.15;41.36
11648;BME280;5880;52.342;9.662;2023-09-19T13:30:29;100334.25;;;25.22;40.89
11648;BME280;5880;52.342;9.662;2023-09-19T13:33:10;100336.72;;;25.24;40.75
11648;BME280;5880;52.342;9.662;2023-09-19T13:35:38;100338.19;;;25.21;40.77
11648;BME280;5880;52.342;9.662;2023-09-19T13:38:05;100323.06;;;25.22;40.62
11648;BME280;5880;52.342;9.662;2023-09-19T13:40:35;100327.50;;;25.23;40.61
11648;BME280;5880;52.342;9.662;2023-09-19T13:43:01;100326.34;;;25.24;40.37
11648;BME280;5880;52.342;9.662;2023-09-19T13:45:27;100313.53;;;25.23;40.47
11648;BME280;5880;52.342;9.662;2023-09-19T13:47:56;100312.38;;;25.24;40.64
11648;BME280;5880;52.342;9.662;2023-09-19T13:50:22;100308.41;;;25.25;40.54